sensor_id;sensor_type;location;lat;lon;timestamp;P1;durP1;ratioP1;P2;durP2;ratioP2
62332;SDS011;48624;49.812;8.562;2022-10-31T00:01:56;13.05;;;9.85;;
62332;SDS011;48624;49.812;8.562;2022-10-31T00:04:22;17.83;;;10.10;;
62332;SDS011;48624;49.812;8.562;2022-10-31T00:06:47;19.02;;;10.20;;
62332;SDS011;48624;49.812;8.562;2022-10-31T00:09:12;12.23;;;9.75;;
62332;SDS011;48624;49.812;8.562;2022-10-31T00:11:38;16.95;;;10.48;;
62332;SDS011;48624;49.812;8.562;2022-10-31T00:14:03;20.13;;;11.45;;
62332;SDS011;48624;49.812;8.562;2022-10-31T00:16:29;18.33;;;12.15;;
62332;SDS011;48624;49.812;8.562;2022-10-31T00:18:57;18.27;;;11.35;;
62332;SDS011;48624;49.812;8.562;2022-10-31T00:21:24;23.75;;;11.00;;
62332;SDS011;48624;49.812;8.562;2022-10-31T00:23:50;18.70;;;11.73;;
62332;SDS011;48624;49.812;8.562;2022-10-31T00:26:16;19.45;;;11.52;;
62332;SDS011;48624;49.812;8.562;2022-10-31T00:28:42;20.30;;;11.63;;
62332;SDS011;48624;49.812;8.562;2022-10-31T00:31:08;17.17;;;11.55;;
62332;SDS011;48624;49.812;8.562;2022-10-31T00:33:35;20.80;;;12.85;;
62332;SDS011;48624;49.812;8.562;2022-10-31T00:36:02;18.88;;;11.60;;
62332;SDS011;48624;49.812;8.562;2022-10-31T00:38:29;19.80;;;12.52;;
62332;SDS011;48624;49.812;8.562;2022-10-31T00:40:54;18.95;;;12.65;;
62332;SDS011;48624;49.812;8.562;2022-10-31T00:43:20;23.45;;;11.93;;
62332;SDS011;48624;49.812;8.562;2022-10-31T00:45:45;22.38;;;13.15;;
62332;SDS011;48624;49.812;8.562;2022-10-31T00:48:10;25.10;;;14.32;;
62332;SDS011;48624;49.812;8.562;2022-10-31T00:50:36;25.45;;;13.93;;
62332;SDS011;48624;49.812;8.562;2022-10-31T00:53:02;21.05;;;12.93;;
62332;SDS011;48624;49.812;8.562;2022-10-31T00:55:28;21.08;;;13.07;;
62332;SDS011;48624;49.812;8.562;2022-10-31T00:57:53;20.27;;;13.18;;
62332;SDS011;48624;49.812;8.562;2022-10-31T01:00:18;20.40;;;12.93;;
62332;SDS011;48624;49.812;8.562;2022-10-31T01:02:44;20.27;;;13.25;;
62332;SDS011;48624;49.812;8.562;2022-10-31T01:05:09;18.73;;;12.00;;
62332;SDS011;48624;49.812;8.562;2022-10-31T01:07:35;21.17;;;12.63;;
62332;SDS011;48624;49.812;8.562;2022-10-31T01:10:01;22.33;;;12.48;;
62332;SDS011;48624;49.812;8.562;2022-10-31T01:12:27;23.45;;;12.32;;
62332;SDS011;48624;49.812;8.562;2022-10-31T01:14:52;22.88;;;12.23;;
62332;SDS011;48624;49.812;8.562;2022-10-31T01:17:17;19.17;;;11.43;;
62332;SDS011;48624;49.812;8.562;2022-10-31T01:19:43;24.50;;;11.50;;
62332;SDS011;48624;49.812;8.562;2022-10-31T01:22:09;19.50;;;11.57;;
62332;SDS011;48624;49.812;8.562;2022-10-31T01:24:34;19.10;;;11.23;;
62332;SDS011;48624;49.812;8.562;2022-10-31T01:27:00;16.73;;;11.38;;
62332;SDS011;48624;49.812;8.562;2022-10-31T01:29:25;18.38;;;11.75;;
62332;SDS011;48624;49.812;8.562;2022-10-31T01:31:50;18.95;;;11.95;;
62332;SDS011;48624;49.812;8.562;2022-10-31T01:34:16;17.90;;;11.70;;
62332;SDS011;48624;49.812;8.562;2022-10-31T01:36:44;21.70;;;12.07;;
62332;SDS011;48624;49.812;8.562;2022-10-31T01:39:12;21.40;;;11.13;;
62332;SDS011;48624;49.812;8.562;2022-10-31T01:41:40;20.60;;;11.50;;
62332;SDS011;48624;49.812;8.562;2022-10-31T01:46:46;23.40;;;12.77;;
62332;SDS011;48624;49.812;8.562;2022-10-31T01:49:14;20.65;;;12.60;;
62332;SDS011;48624;49.812;8.562;2022-10-31T01:51:56;23.08;;;12.63;;
62332;SDS011;48624;49.812;8.562;2022-10-31T01:54:26;19.48;;;12.55;;
62332;SDS011;48624;49.812;8.562;2022-10-31T01:56:57;20.92;;;13.13;;
62332;SDS011;48624;49.812;8.562;2022-10-31T01:59:24;19.48;;;12.18;;
62332;SDS011;48624;49.812;8.562;2022-10-31T02:01:54;22.90;;;12.15;;
62332;SDS011;48624;49.812;8.562;2022-10-31T02:04:20;20.77;;;11.57;;
62332;SDS011;48624;49.812;8.562;2022-10-31T02:07:10;22.27;;;11.93;;
62332;SDS011;48624;49.812;8.562;2022-10-31T02:09:39;22.52;;;12.05;;
62332;SDS011;48624;49.812;8.562;2022-10-31T02:12:05;18.08;;;11.55;;
62332;SDS011;48624;49.812;8.562;2022-10-31T02:14:32;22.77;;;12.88;;
62332;SDS011;48624;49.812;8.562;2022-10-31T02:16:58;21.90;;;12.82;;
62332;SDS011;48624;49.812;8.562;2022-10-31T02:22:05;23.65;;;12.23;;
62332;SDS011;48624;49.812;8.562;2022-10-31T02:28:04;21.23;;;11.82;;
62332;SDS011;48624;49.812;8.562;2022-10-31T02:31:07;19.35;;;12.40;;
62332;SDS011;48624;49.812;8.562;2022-10-31T02:33:45;24.27;;;11.40;;
62332;SDS011;48624;49.812;8.562;2022-10-31T02:36:19;17.42;;;11.75;;
62332;SDS011;48624;49.812;8.562;2022-10-31T02:46:52;16.55;;;10.48;;
62332;SDS011;48624;49.812;8.562;2022-10-31T02:52:18;20.30;;;12.23;;
62332;SDS011;48624;49.812;8.562;2022-10-31T02:54:43;17.52;;;11.45;;
62332;SDS011;48624;49.812;8.562;2022-10-31T02:57:11;17.17;;;11.23;;
62332;SDS011;48624;49.812;8.562;2022-10-31T02:59:38;24.48;;;12.15;;
62332;SDS011;48624;49.812;8.562;2022-10-31T03:07:58;16.85;;;11.40;;
62332;SDS011;48624;49.812;8.562;2022-10-31T03:13:20;23.02;;;13.00;;
62332;SDS011;48624;49.812;8.562;2022-10-31T03:16:13;23.98;;;13.15;;
62332;SDS011;48624;49.812;8.562;2022-10-31T03:18:49;24.50;;;14.25;;
62332;SDS011;48624;49.812;8.562;2022-10-31T03:21:22;24.95;;;14.60;;
62332;SDS011;48624;49.812;8.562;2022-10-31T03:24:11;23.45;;;14.32;;
62332;SDS011;48624;49.812;8.562;2022-10-31T03:26:39;26.55;;;14.85;;
62332;SDS011;48624;49.812;8.562;2022-10-31T03:29:10;24.55;;;13.45;;
62332;SDS011;48624;49.812;8.562;2022-10-31T03:31:39;24.05;;;13.75;;
62332;SDS011;48624;49.812;8.562;2022-10-31T03:34:29;20.90;;;13.63;;
62332;SDS011;48624;49.812;8.562;2022-10-31T03:36:57;29.67;;;15.02;;
62332;SDS011;48624;49.812;8.562;2022-10-31T03:39:26;18.58;;;14.05;;
62332;SDS011;48624;49.812;8.562;2022-10-31T03:41:54;23.83;;;13.85;;
62332;SDS011;48624;49.812;8.562;2022-10-31T03:44:24;22.77;;;15.20;;
62332;SDS011;48624;49.812;8.562;2022-10-31T03:46:52;27.05;;;15.10;;
62332;SDS011;48624;49.812;8.562;2022-10-31T03:49:18;26.73;;;15.35;;
62332;SDS011;48624;49.812;8.562;2022-10-31T03:54:25;25.27;;;15.10;;
62332;SDS011;48624;49.812;8.562;2022-10-31T03:59:59;26.75;;;17.02;;
62332;SDS011;48624;49.812;8.562;2022-10-31T04:02:30;28.25;;;16.70;;
62332;SDS011;48624;49.812;8.562;2022-10-31T04:04:58;22.05;;;14.80;;
62332;SDS011;48624;49.812;8.562;2022-10-31T04:07:26;23.38;;;15.65;;
62332;SDS011;48624;49.812;8.562;2022-10-31T04:09:55;29.45;;;15.65;;
62332;SDS011;48624;49.812;8.562;2022-10-31T04:12:25;23.35;;;14.85;;
62332;SDS011;48624;49.812;8.562;2022-10-31T04:14:53;21.75;;;15.25;;
62332;SDS011;48624;49.812;8.562;2022-10-31T04:17:21;23.83;;;14.18;;
62332;SDS011;48624;49.812;8.562;2022-10-31T04:19:48;18.05;;;12.13;;
62332;SDS011;48624;49.812;8.562;2022-10-31T04:22:13;22.42;;;13.13;;
62332;SDS011;48624;49.812;8.562;2022-10-31T04:24:39;23.92;;;12.80;;
62332;SDS011;48624;49.812;8.562;2022-10-31T04:27:05;26.02;;;14.93;;
62332;SDS011;48624;49.812;8.562;2022-10-31T04:29:31;34.35;;;16.25;;
62332;SDS011;48624;49.812;8.562;2022-10-31T04:31:56;36.70;;;15.60;;
62332;SDS011;48624;49.812;8.562;2022-10-31T04:34:21;36.78;;;16.55;;
62332;SDS011;48624;49.812;8.562;2022-10-31T04:36:47;32.20;;;16.30;;
62332;SDS011;48624;49.812;8.562;2022-10-31T04:39:12;29.25;;;17.45;;
62332;SDS011;48624;49.812;8.562;2022-10-31T04:41:37;26.38;;;15.60;;
62332;SDS011;48624;49.812;8.562;2022-10-31T04:44:03;27.42;;;15.10;;
62332;SDS011;48624;49.812;8.562;2022-10-31T04:46:28;21.30;;;14.45;;
62332;SDS011;48624;49.812;8.562;2022-10-31T04:48:53;31.05;;;15.23;;
62332;SDS011;48624;49.812;8.562;2022-10-31T04:51:19;31.08;;;16.30;;
62332;SDS011;48624;49.812;8.562;2022-10-31T04:53:44;29.27;;;16.45;;
62332;SDS011;48624;49.812;8.562;2022-10-31T04:56:09;24.20;;;15.30;;
62332;SDS011;48624;49.812;8.562;2022-10-31T04:58:35;22.08;;;13.75;;
62332;SDS011;48624;49.812;8.562;2022-10-31T05:01:00;25.60;;;15.18;;
62332;SDS011;48624;49.812;8.562;2022-10-31T05:03:25;24.00;;;15.07;;
62332;SDS011;48624;49.812;8.562;2022-10-31T05:05:50;18.88;;;13.32;;
62332;SDS011;48624;49.812;8.562;2022-10-31T05:08:16;25.02;;;13.30;;
62332;SDS011;48624;49.812;8.562;2022-10-31T05:10:41;25.33;;;14.48;;
62332;SDS011;48624;49.812;8.562;2022-10-31T05:13:07;21.05;;;13.57;;
62332;SDS011;48624;49.812;8.562;2022-10-31T05:15:32;20.52;;;14.10;;
62332;SDS011;48624;49.812;8.562;2022-10-31T05:17:58;32.08;;;16.58;;
62332;SDS011;48624;49.812;8.562;2022-10-31T05:20:25;24.95;;;15.63;;
62332;SDS011;48624;49.812;8.562;2022-10-31T05:22:53;24.90;;;15.50;;
62332;SDS011;48624;49.812;8.562;2022-10-31T05:25:20;21.27;;;13.70;;
62332;SDS011;48624;49.812;8.562;2022-10-31T05:27:48;20.63;;;12.43;;
62332;SDS011;48624;49.812;8.562;2022-10-31T05:30:16;23.40;;;16.10;;
62332;SDS011;48624;49.812;8.562;2022-10-31T05:32:44;23.83;;;15.40;;
62332;SDS011;48624;49.812;8.562;2022-10-31T05:35:13;22.05;;;14.55;;
62332;SDS011;48624;49.812;8.562;2022-10-31T05:37:41;26.60;;;15.05;;
62332;SDS011;48624;49.812;8.562;2022-10-31T05:40:07;20.00;;;13.63;;
62332;SDS011;48624;49.812;8.562;2022-10-31T05:42:35;21.70;;;13.63;;
62332;SDS011;48624;49.812;8.562;2022-10-31T05:45:01;21.42;;;15.13;;
62332;SDS011;48624;49.812;8.562;2022-10-31T05:47:27;25.20;;;15.10;;
62332;SDS011;48624;49.812;8.562;2022-10-31T05:49:53;24.52;;;15.13;;
62332;SDS011;48624;49.812;8.562;2022-10-31T05:52:18;24.65;;;15.07;;
62332;SDS011;48624;49.812;8.562;2022-10-31T05:54:44;23.58;;;14.45;;
62332;SDS011;48624;49.812;8.562;2022-10-31T05:57:10;36.47;;;16.98;;
62332;SDS011;48624;49.812;8.562;2022-10-31T05:59:35;36.50;;;17.80;;
62332;SDS011;48624;49.812;8.562;2022-10-31T06:02:00;32.13;;;16.08;;
62332;SDS011;48624;49.812;8.562;2022-10-31T06:04:26;33.55;;;18.42;;
62332;SDS011;48624;49.812;8.562;2022-10-31T06:06:51;31.05;;;16.25;;
62332;SDS011;48624;49.812;8.562;2022-10-31T06:09:16;35.33;;;17.73;;
62332;SDS011;48624;49.812;8.562;2022-10-31T06:11:41;22.15;;;15.77;;
62332;SDS011;48624;49.812;8.562;2022-10-31T06:14:07;24.08;;;16.15;;
62332;SDS011;48624;49.812;8.562;2022-10-31T06:16:33;23.88;;;14.63;;
62332;SDS011;48624;49.812;8.562;2022-10-31T06:18:58;22.45;;;14.98;;
62332;SDS011;48624;49.812;8.562;2022-10-31T06:21:23;27.67;;;15.05;;
62332;SDS011;48624;49.812;8.562;2022-10-31T06:23:49;23.02;;;14.57;;
62332;SDS011;48624;49.812;8.562;2022-10-31T06:26:14;23.30;;;14.73;;
62332;SDS011;48624;49.812;8.562;2022-10-31T06:28:39;25.15;;;15.32;;
62332;SDS011;48624;49.812;8.562;2022-10-31T06:31:05;26.42;;;16.33;;
62332;SDS011;48624;49.812;8.562;2022-10-31T06:33:30;25.50;;;17.77;;
62332;SDS011;48624;49.812;8.562;2022-10-31T06:35:57;22.92;;;15.40;;
62332;SDS011;48624;49.812;8.562;2022-10-31T06:38:22;26.85;;;18.55;;
62332;SDS011;48624;49.812;8.562;2022-10-31T06:40:48;25.67;;;17.52;;
62332;SDS011;48624;49.812;8.562;2022-10-31T06:43:13;26.60;;;19.05;;
62332;SDS011;48624;49.812;8.562;2022-10-31T06:45:39;27.92;;;17.15;;
62332;SDS011;48624;49.812;8.562;2022-10-31T06:48:05;24.05;;;16.38;;
62332;SDS011;48624;49.812;8.562;2022-10-31T06:50:30;24.98;;;14.25;;
62332;SDS011;48624;49.812;8.562;2022-10-31T06:52:56;21.67;;;15.63;;
62332;SDS011;48624;49.812;8.562;2022-10-31T06:55:23;19.63;;;14.27;;
62332;SDS011;48624;49.812;8.562;2022-10-31T06:57:50;18.88;;;14.48;;
62332;SDS011;48624;49.812;8.562;2022-10-31T07:00:20;21.50;;;14.60;;
62332;SDS011;48624;49.812;8.562;2022-10-31T07:05:21;17.90;;;12.65;;
62332;SDS011;48624;49.812;8.562;2022-10-31T07:07:46;18.92;;;14.68;;
62332;SDS011;48624;49.812;8.562;2022-10-31T07:10:12;20.42;;;13.48;;
62332;SDS011;48624;49.812;8.562;2022-10-31T07:12:37;18.17;;;14.30;;
62332;SDS011;48624;49.812;8.562;2022-10-31T07:15:03;16.75;;;12.98;;
62332;SDS011;48624;49.812;8.562;2022-10-31T07:17:28;16.45;;;12.68;;
62332;SDS011;48624;49.812;8.562;2022-10-31T07:19:54;16.95;;;13.05;;
62332;SDS011;48624;49.812;8.562;2022-10-31T07:22:19;17.58;;;13.25;;
62332;SDS011;48624;49.812;8.562;2022-10-31T07:24:44;19.63;;;13.38;;
62332;SDS011;48624;49.812;8.562;2022-10-31T07:27:09;26.83;;;14.80;;
62332;SDS011;48624;49.812;8.562;2022-10-31T07:29:35;29.48;;;14.18;;
62332;SDS011;48624;49.812;8.562;2022-10-31T07:32:00;21.63;;;14.88;;
62332;SDS011;48624;49.812;8.562;2022-10-31T07:34:26;32.95;;;14.77;;
62332;SDS011;48624;49.812;8.562;2022-10-31T07:36:51;25.80;;;15.18;;
62332;SDS011;48624;49.812;8.562;2022-10-31T07:39:17;19.10;;;13.15;;
62332;SDS011;48624;49.812;8.562;2022-10-31T07:41:42;15.00;;;12.50;;
62332;SDS011;48624;49.812;8.562;2022-10-31T07:44:07;14.60;;;11.55;;
62332;SDS011;48624;49.812;8.562;2022-10-31T07:46:33;17.10;;;12.95;;
62332;SDS011;48624;49.812;8.562;2022-10-31T07:48:58;20.38;;;13.30;;
62332;SDS011;48624;49.812;8.562;2022-10-31T07:51:23;23.50;;;14.38;;
62332;SDS011;48624;49.812;8.562;2022-10-31T07:53:49;23.02;;;13.90;;
62332;SDS011;48624;49.812;8.562;2022-10-31T07:56:14;23.25;;;14.15;;
62332;SDS011;48624;49.812;8.562;2022-10-31T07:58:39;26.15;;;15.45;;
62332;SDS011;48624;49.812;8.562;2022-10-31T08:01:05;22.98;;;14.00;;
62332;SDS011;48624;49.812;8.562;2022-10-31T08:03:30;20.83;;;13.98;;
62332;SDS011;48624;49.812;8.562;2022-10-31T08:05:56;20.67;;;14.43;;
62332;SDS011;48624;49.812;8.562;2022-10-31T08:08:21;19.40;;;12.80;;
62332;SDS011;48624;49.812;8.562;2022-10-31T08:10:46;16.50;;;13.52;;
62332;SDS011;48624;49.812;8.562;2022-10-31T08:13:12;17.98;;;13.20;;
62332;SDS011;48624;49.812;8.562;2022-10-31T08:15:39;18.83;;;14.00;;
62332;SDS011;48624;49.812;8.562;2022-10-31T08:18:06;23.90;;;14.43;;
62332;SDS011;48624;49.812;8.562;2022-10-31T08:20:37;20.15;;;13.85;;
62332;SDS011;48624;49.812;8.562;2022-10-31T08:23:03;19.42;;;14.57;;
62332;SDS011;48624;49.812;8.562;2022-10-31T08:25:30;17.02;;;13.70;;
62332;SDS011;48624;49.812;8.562;2022-10-31T08:27:57;23.92;;;15.05;;
62332;SDS011;48624;49.812;8.562;2022-10-31T08:30:24;16.70;;;13.02;;
62332;SDS011;48624;49.812;8.562;2022-10-31T08:32:58;16.08;;;12.45;;
62332;SDS011;48624;49.812;8.562;2022-10-31T08:35:25;18.00;;;13.60;;
62332;SDS011;48624;49.812;8.562;2022-10-31T08:37:53;17.13;;;13.00;;
62332;SDS011;48624;49.812;8.562;2022-10-31T08:40:20;18.17;;;13.05;;
62332;SDS011;48624;49.812;8.562;2022-10-31T08:42:45;17.70;;;12.82;;
62332;SDS011;48624;49.812;8.562;2022-10-31T08:45:11;15.00;;;11.45;;
62332;SDS011;48624;49.812;8.562;2022-10-31T08:47:36;15.23;;;12.13;;
62332;SDS011;48624;49.812;8.562;2022-10-31T08:50:01;18.08;;;13.35;;
62332;SDS011;48624;49.812;8.562;2022-10-31T08:52:27;19.30;;;12.30;;
62332;SDS011;48624;49.812;8.562;2022-10-31T08:54:52;15.73;;;11.82;;
62332;SDS011;48624;49.812;8.562;2022-10-31T08:57:17;17.60;;;12.57;;
62332;SDS011;48624;49.812;8.562;2022-10-31T08:59:43;26.58;;;12.25;;
62332;SDS011;48624;49.812;8.562;2022-10-31T09:02:08;19.23;;;12.55;;
62332;SDS011;48624;49.812;8.562;2022-10-31T09:04:33;23.13;;;12.20;;
62332;SDS011;48624;49.812;8.562;2022-10-31T09:06:59;16.85;;;11.48;;
62332;SDS011;48624;49.812;8.562;2022-10-31T09:09:24;20.05;;;11.60;;
62332;SDS011;48624;49.812;8.562;2022-10-31T09:11:49;22.65;;;10.75;;
62332;SDS011;48624;49.812;8.562;2022-10-31T09:14:15;19.48;;;12.25;;
62332;SDS011;48624;49.812;8.562;2022-10-31T09:16:40;17.30;;;9.43;;
62332;SDS011;48624;49.812;8.562;2022-10-31T09:19:05;16.90;;;9.40;;
62332;SDS011;48624;49.812;8.562;2022-10-31T09:21:30;19.15;;;10.25;;
62332;SDS011;48624;49.812;8.562;2022-10-31T09:23:56;16.35;;;9.70;;
62332;SDS011;48624;49.812;8.562;2022-10-31T09:26:21;16.80;;;8.80;;
62332;SDS011;48624;49.812;8.562;2022-10-31T09:28:46;15.90;;;9.40;;
62332;SDS011;48624;49.812;8.562;2022-10-31T09:31:12;13.40;;;9.40;;
62332;SDS011;48624;49.812;8.562;2022-10-31T09:33:37;10.23;;;8.07;;
62332;SDS011;48624;49.812;8.562;2022-10-31T09:36:02;15.13;;;8.57;;
62332;SDS011;48624;49.812;8.562;2022-10-31T09:38:28;13.85;;;8.40;;
62332;SDS011;48624;49.812;8.562;2022-10-31T09:51:50;12.65;;;8.52;;
62332;SDS011;48624;49.812;8.562;2022-10-31T09:57:07;13.50;;;7.57;;
62332;SDS011;48624;49.812;8.562;2022-10-31T09:59:39;15.90;;;8.43;;
62332;SDS011;48624;49.812;8.562;2022-10-31T10:04:49;16.48;;;9.05;;
62332;SDS011;48624;49.812;8.562;2022-10-31T10:26:40;17.30;;;8.63;;
62332;SDS011;48624;49.812;8.562;2022-10-31T10:32:08;11.57;;;7.28;;
62332;SDS011;48624;49.812;8.562;2022-10-31T10:34:41;16.00;;;8.05;;
62332;SDS011;48624;49.812;8.562;2022-10-31T10:37:20;16.75;;;8.23;;
62332;SDS011;48624;49.812;8.562;2022-10-31T10:39:50;16.65;;;8.30;;
62332;SDS011;48624;49.812;8.562;2022-10-31T10:42:20;13.00;;;7.28;;
62332;SDS011;48624;49.812;8.562;2022-10-31T10:45:15;16.38;;;7.85;;
62332;SDS011;48624;49.812;8.562;2022-10-31T10:48:47;14.65;;;8.18;;
62332;SDS011;48624;49.812;8.562;2022-10-31T10:50:52;11.10;;;7.57;;
62332;SDS011;48624;49.812;8.562;2022-10-31T10:53:21;14.05;;;7.80;;
62332;SDS011;48624;49.812;8.562;2022-10-31T10:56:17;16.27;;;8.00;;
62332;SDS011;48624;49.812;8.562;2022-10-31T10:58:51;11.55;;;7.15;;
62332;SDS011;48624;49.812;8.562;2022-10-31T11:01:19;14.30;;;7.65;;
62332;SDS011;48624;49.812;8.562;2022-10-31T11:03:44;10.60;;;7.00;;
62332;SDS011;48624;49.812;8.562;2022-10-31T11:06:20;8.38;;;6.57;;
62332;SDS011;48624;49.812;8.562;2022-10-31T11:08:50;9.02;;;7.20;;
62332;SDS011;48624;49.812;8.562;2022-10-31T11:13:47;14.45;;;7.05;;
62332;SDS011;48624;49.812;8.562;2022-10-31T11:18:50;15.65;;;7.65;;
62332;SDS011;48624;49.812;8.562;2022-10-31T11:21:20;14.18;;;7.07;;
62332;SDS011;48624;49.812;8.562;2022-10-31T11:23:50;10.07;;;6.47;;
62332;SDS011;48624;49.812;8.562;2022-10-31T11:26:38;12.85;;;6.97;;
62332;SDS011;48624;49.812;8.562;2022-10-31T11:29:04;9.55;;;7.25;;
62332;SDS011;48624;49.812;8.562;2022-10-31T11:31:31;13.95;;;6.60;;
62332;SDS011;48624;49.812;8.562;2022-10-31T11:34:00;12.05;;;7.28;;
62332;SDS011;48624;49.812;8.562;2022-10-31T11:36:32;11.18;;;7.03;;
62332;SDS011;48624;49.812;8.562;2022-10-31T11:39:02;20.63;;;8.05;;
62332;SDS011;48624;49.812;8.562;2022-10-31T11:41:30;11.32;;;6.85;;
62332;SDS011;48624;49.812;8.562;2022-10-31T11:43:59;12.40;;;7.32;;
62332;SDS011;48624;49.812;8.562;2022-10-31T11:49:02;12.40;;;6.78;;
62332;SDS011;48624;49.812;8.562;2022-10-31T11:51:30;11.95;;;6.95;;
62332;SDS011;48624;49.812;8.562;2022-10-31T11:53:59;11.82;;;7.00;;
62332;SDS011;48624;49.812;8.562;2022-10-31T11:56:27;9.38;;;6.55;;
62332;SDS011;48624;49.812;8.562;2022-10-31T11:59:04;10.60;;;7.38;;
62332;SDS011;48624;49.812;8.562;2022-10-31T12:01:40;14.85;;;8.30;;
62332;SDS011;48624;49.812;8.562;2022-10-31T12:04:12;16.13;;;7.78;;
62332;SDS011;48624;49.812;8.562;2022-10-31T12:06:39;10.48;;;6.15;;
62332;SDS011;48624;49.812;8.562;2022-10-31T12:09:23;12.50;;;6.32;;
62332;SDS011;48624;49.812;8.562;2022-10-31T12:18:12;14.38;;;7.28;;
62332;SDS011;48624;49.812;8.562;2022-10-31T12:28:33;15.50;;;6.72;;
62332;SDS011;48624;49.812;8.562;2022-10-31T12:31:19;13.75;;;7.50;;
62332;SDS011;48624;49.812;8.562;2022-10-31T12:54:02;9.82;;;6.78;;
62332;SDS011;48624;49.812;8.562;2022-10-31T13:04:54;8.88;;;6.03;;
62332;SDS011;48624;49.812;8.562;2022-10-31T13:07:25;10.52;;;7.63;;
62332;SDS011;48624;49.812;8.562;2022-10-31T13:10:04;14.27;;;7.20;;
62332;SDS011;48624;49.812;8.562;2022-10-31T13:12:34;11.05;;;6.03;;
62332;SDS011;48624;49.812;8.562;2022-10-31T13:15:04;13.10;;;7.38;;
62332;SDS011;48624;49.812;8.562;2022-10-31T13:18:21;12.73;;;7.10;;
62332;SDS011;48624;49.812;8.562;2022-10-31T13:20:40;10.80;;;7.57;;
62332;SDS011;48624;49.812;8.562;2022-10-31T13:25:46;13.55;;;6.85;;
62332;SDS011;48624;49.812;8.562;2022-10-31T13:31:13;14.20;;;6.80;;
62332;SDS011;48624;49.812;8.562;2022-10-31T13:36:11;11.82;;;7.15;;
62332;SDS011;48624;49.812;8.562;2022-10-31T13:46:43;17.13;;;7.60;;
62332;SDS011;48624;49.812;8.562;2022-10-31T13:52:04;24.13;;;14.93;;
62332;SDS011;48624;49.812;8.562;2022-10-31T13:54:40;20.65;;;12.48;;
62332;SDS011;48624;49.812;8.562;2022-10-31T13:57:21;19.05;;;10.60;;
62332;SDS011;48624;49.812;8.562;2022-10-31T13:59:56;38.60;;;24.02;;
62332;SDS011;48624;49.812;8.562;2022-10-31T14:02:31;64.43;;;36.95;;
62332;SDS011;48624;49.812;8.562;2022-10-31T14:05:06;51.65;;;30.92;;
62332;SDS011;48624;49.812;8.562;2022-10-31T14:07:44;19.10;;;10.60;;
62332;SDS011;48624;49.812;8.562;2022-10-31T14:16:27;45.90;;;22.02;;
62332;SDS011;48624;49.812;8.562;2022-10-31T14:18:57;17.80;;;9.32;;
62332;SDS011;48624;49.812;8.562;2022-10-31T14:21:27;14.00;;;7.18;;
62332;SDS011;48624;49.812;8.562;2022-10-31T14:23:55;14.38;;;8.00;;
62332;SDS011;48624;49.812;8.562;2022-10-31T14:29:20;12.55;;;6.82;;
62332;SDS011;48624;49.812;8.562;2022-10-31T14:31:39;13.43;;;7.57;;
62332;SDS011;48624;49.812;8.562;2022-10-31T14:34:24;13.32;;;7.63;;
62332;SDS011;48624;49.812;8.562;2022-10-31T14:50:58;14.80;;;6.57;;
62332;SDS011;48624;49.812;8.562;2022-10-31T14:53:30;15.70;;;7.25;;
62332;SDS011;48624;49.812;8.562;2022-10-31T14:55:58;12.85;;;6.75;;
62332;SDS011;48624;49.812;8.562;2022-10-31T14:58:27;13.10;;;6.70;;
62332;SDS011;48624;49.812;8.562;2022-10-31T15:00:59;11.93;;;6.90;;
62332;SDS011;48624;49.812;8.562;2022-10-31T15:03:27;17.15;;;6.97;;
62332;SDS011;48624;49.812;8.562;2022-10-31T15:06:00;13.10;;;6.25;;
62332;SDS011;48624;49.812;8.562;2022-10-31T15:08:39;8.45;;;5.70;;
62332;SDS011;48624;49.812;8.562;2022-10-31T15:11:14;10.50;;;6.07;;
62332;SDS011;48624;49.812;8.562;2022-10-31T15:13:46;12.68;;;5.57;;
62332;SDS011;48624;49.812;8.562;2022-10-31T15:16:14;13.40;;;6.43;;
62332;SDS011;48624;49.812;8.562;2022-10-31T15:18:47;9.30;;;6.25;;
62332;SDS011;48624;49.812;8.562;2022-10-31T15:21:18;12.63;;;7.22;;
62332;SDS011;48624;49.812;8.562;2022-10-31T15:23:45;14.13;;;6.85;;
62332;SDS011;48624;49.812;8.562;2022-10-31T15:26:19;14.30;;;7.20;;
62332;SDS011;48624;49.812;8.562;2022-10-31T15:28:56;13.63;;;8.52;;
62332;SDS011;48624;49.812;8.562;2022-10-31T15:31:24;13.43;;;7.38;;
62332;SDS011;48624;49.812;8.562;2022-10-31T15:33:49;10.50;;;7.50;;
62332;SDS011;48624;49.812;8.562;2022-10-31T15:36:20;13.88;;;7.90;;
62332;SDS011;48624;49.812;8.562;2022-10-31T15:38:47;12.05;;;8.05;;
62332;SDS011;48624;49.812;8.562;2022-10-31T15:44:01;13.75;;;8.20;;
62332;SDS011;48624;49.812;8.562;2022-10-31T15:46:32;10.05;;;7.85;;
62332;SDS011;48624;49.812;8.562;2022-10-31T15:48:58;13.68;;;7.78;;
62332;SDS011;48624;49.812;8.562;2022-10-31T15:51:28;12.95;;;8.10;;
62332;SDS011;48624;49.812;8.562;2022-10-31T15:53:57;10.57;;;7.30;;
62332;SDS011;48624;49.812;8.562;2022-10-31T15:56:26;14.10;;;7.97;;
62332;SDS011;48624;49.812;8.562;2022-10-31T15:58:56;16.20;;;8.60;;
62332;SDS011;48624;49.812;8.562;2022-10-31T16:01:24;17.13;;;8.77;;
62332;SDS011;48624;49.812;8.562;2022-10-31T16:06:37;15.20;;;8.45;;
62332;SDS011;48624;49.812;8.562;2022-10-31T16:09:03;14.32;;;8.02;;
62332;SDS011;48624;49.812;8.562;2022-10-31T16:11:46;16.45;;;9.23;;
62332;SDS011;48624;49.812;8.562;2022-10-31T16:16:41;15.63;;;8.77;;
62332;SDS011;48624;49.812;8.562;2022-10-31T16:19:16;14.07;;;9.43;;
62332;SDS011;48624;49.812;8.562;2022-10-31T16:21:45;11.70;;;9.05;;
62332;SDS011;48624;49.812;8.562;2022-10-31T16:26:49;17.40;;;9.15;;
62332;SDS011;48624;49.812;8.562;2022-10-31T16:32:27;12.80;;;7.53;;
62332;SDS011;48624;49.812;8.562;2022-10-31T16:37:33;13.77;;;7.57;;
62332;SDS011;48624;49.812;8.562;2022-10-31T16:39:58;17.13;;;8.05;;
62332;SDS011;48624;49.812;8.562;2022-10-31T16:42:23;22.65;;;8.90;;
62332;SDS011;48624;49.812;8.562;2022-10-31T16:44:49;12.98;;;8.07;;
62332;SDS011;48624;49.812;8.562;2022-10-31T16:47:15;15.07;;;8.20;;
62332;SDS011;48624;49.812;8.562;2022-10-31T16:49:42;18.58;;;12.93;;
62332;SDS011;48624;49.812;8.562;2022-10-31T16:52:09;16.10;;;8.15;;
62332;SDS011;48624;49.812;8.562;2022-10-31T16:54:34;11.02;;;7.68;;
62332;SDS011;48624;49.812;8.562;2022-10-31T16:56:59;9.60;;;7.40;;
62332;SDS011;48624;49.812;8.562;2022-10-31T16:59:27;11.80;;;7.55;;
62332;SDS011;48624;49.812;8.562;2022-10-31T17:01:54;13.25;;;8.02;;
62332;SDS011;48624;49.812;8.562;2022-10-31T17:04:20;13.25;;;7.80;;
62332;SDS011;48624;49.812;8.562;2022-10-31T17:06:46;14.63;;;8.23;;
62332;SDS011;48624;49.812;8.562;2022-10-31T17:09:11;20.88;;;10.98;;
62332;SDS011;48624;49.812;8.562;2022-10-31T17:11:37;19.15;;;9.90;;
62332;SDS011;48624;49.812;8.562;2022-10-31T17:14:07;16.35;;;10.73;;
62332;SDS011;48624;49.812;8.562;2022-10-31T17:16:33;18.60;;;10.63;;
62332;SDS011;48624;49.812;8.562;2022-10-31T17:18:59;20.52;;;10.65;;
62332;SDS011;48624;49.812;8.562;2022-10-31T17:21:24;13.43;;;9.35;;
62332;SDS011;48624;49.812;8.562;2022-10-31T17:23:52;20.15;;;10.88;;
62332;SDS011;48624;49.812;8.562;2022-10-31T17:26:17;16.40;;;10.32;;
62332;SDS011;48624;49.812;8.562;2022-10-31T17:28:44;18.65;;;12.40;;
62332;SDS011;48624;49.812;8.562;2022-10-31T17:31:17;20.92;;;12.32;;
62332;SDS011;48624;49.812;8.562;2022-10-31T17:33:46;23.00;;;12.10;;
62332;SDS011;48624;49.812;8.562;2022-10-31T17:36:11;22.55;;;13.23;;
62332;SDS011;48624;49.812;8.562;2022-10-31T17:38:36;18.02;;;11.15;;